Stations météo

réclame
Mon MeteoGroup
Blahammaren A, Suède (2210): Température de l'air & dewpoint: 08.08.2020 06:00:00 - 14.08.2020 06:00:00 (CEST)Blahammaren A, Suède (2210): Vitesse du vent & gusts: 08.08.2020 06:00:00 - 14.08.2020 06:00:00 (CEST)Blahammaren A, Suède (2210): Direction du vent: 08.08.2020 06:00:00 - 14.08.2020 06:00:00 (CEST)
Date & Time tt [°C] td [°C] ff [km/h] ff [knt] fx [km/h] fx [knt] dd
14.08.2020 06:00:00 9,3 9,1 14 8 25 14 W
14.08.2020 05:00:00 9,4 9,3 17 9 - - NW
14.08.2020 04:00:00 9,8 9,7 20 11 29 16 WNW
14.08.2020 03:00:00 10,2 10,0 21 11 29 16 WNW
14.08.2020 02:00:00 10,4 10,2 18 10 27 15 WNW
14.08.2020 01:00:00 10,6 10,4 16 9 - - WNW
14.08.2020 00:00:00 10,9 10,7 17 9 23 13 WNW
13.08.2020 23:00:00 11,5 11,3 13 7 19 10 WNW
13.08.2020 22:00:00 11,5 11,2 11 6 16 8 WNW
13.08.2020 21:00:00 11,2 10,6 13 7 20 11 WNW
13.08.2020 20:00:00 11,6 11,4 17 9 23 12 WNW
13.08.2020 19:00:00 11,9 11,3 15 8 39 21 W
13.08.2020 18:00:00 13,3 11,5 31 17 44 24 S
13.08.2020 17:00:00 14,5 11,6 31 17 40 22 S
13.08.2020 16:00:00 14,2 11,9 24 13 35 19 S
13.08.2020 15:00:00 13,5 11,7 12 7 21 11 SSW
13.08.2020 14:00:00 14,2 10,0 17 9 24 13 SSW
13.08.2020 13:00:00 14,5 9,7 13 7 16 9 S
13.08.2020 12:00:00 14,6 8,8 6 3 18 10 W
13.08.2020 11:00:00 14,6 8,5 13 7 23 12 SW
13.08.2020 10:00:00 14,4 7,2 18 10 25 13 SSW
13.08.2020 09:00:00 12,9 3,8 16 9 20 11 SSW
13.08.2020 08:00:00 13,1 3,7 14 7 - - SSW
13.08.2020 07:00:00 11,9 5,1 15 8 18 10 SSW
13.08.2020 06:00:00 10,9 3,7 10 5 18 10 SW
13.08.2020 05:00:00 10,8 5,1 13 7 17 9 WSW
13.08.2020 04:00:00 11,4 3,9 11 6 18 10 W
13.08.2020 03:00:00 11,1 4,3 16 9 23 12 W
13.08.2020 02:00:00 10,9 3,7 18 10 23 12 W
13.08.2020 01:00:00 10,3 3,8 16 8 19 10 WSW
13.08.2020 00:00:00 10,3 4,2 13 7 16 8 WSW
12.08.2020 23:00:00 10,2 5,0 11 6 22 12 WNW
12.08.2020 22:00:00 9,8 6,3 14 7 20 11 WNW
12.08.2020 21:00:00 10,5 6,8 11 6 20 11 NW
12.08.2020 20:00:00 11,8 7,1 16 8 22 12 NW
12.08.2020 19:00:00 12,9 7,1 17 9 27 14 NW
12.08.2020 18:00:00 12,9 6,5 19 10 31 17 NW
12.08.2020 17:00:00 13,2 6,8 23 12 31 17 NW
12.08.2020 16:00:00 13,5 6,8 22 12 34 19 NW
12.08.2020 15:00:00 14,0 5,6 21 11 35 19 NW
12.08.2020 14:00:00 12,7 5,4 26 14 34 18 NW
12.08.2020 13:00:00 13,4 7,2 21 12 29 16 NW
12.08.2020 12:00:00 12,6 8,1 18 10 28 15 NW
12.08.2020 11:00:00 12,2 6,9 16 8 21 12 NW
12.08.2020 10:00:00 12,0 9,2 10 5 23 13 WNW
12.08.2020 09:00:00 11,2 9,3 11 6 22 12 W
12.08.2020 08:00:00 11,2 8,1 10 5 16 9 WNW
12.08.2020 07:00:00 11,1 8,0 9 5 13 7 WSW
12.08.2020 06:00:00 10,6 8,0 10 5 13 7 SW
12.08.2020 05:00:00 10,0 7,4 11 6 14 7 SW
12.08.2020 04:00:00 11,4 7,5 9 5 15 8 SW
12.08.2020 03:00:00 12,3 7,6 11 6 17 9 WSW
12.08.2020 02:00:00 11,1 7,6 9 5 16 9 SSW
12.08.2020 01:00:00 11,9 7,6 11 6 13 7 S
12.08.2020 00:00:00 12,9 6,0 5 3 11 6 W
11.08.2020 23:00:00 11,5 8,7 4 2 7 4 SSE
11.08.2020 22:00:00 11,5 9,4 4 2 10 5 N
11.08.2020 21:00:00 12,6 8,9 8 4 10 5 NNE
11.08.2020 20:00:00 13,1 9,2 7 4 19 10 N
11.08.2020 19:00:00 14,3 8,3 15 8 25 14 N
11.08.2020 18:00:00 14,9 8,1 14 8 25 13 N
11.08.2020 17:00:00 15,6 7,6 16 8 27 15 NNW
11.08.2020 16:00:00 14,7 6,3 21 11 26 14 NNW
11.08.2020 15:00:00 15,1 7,9 16 9 33 18 NNW
11.08.2020 14:00:00 16,6 8,0 9 5 - - WNW
11.08.2020 13:00:00 17,9 7,9 8 5 22 12 W
11.08.2020 12:00:00 17,2 8,6 10 5 24 13 W
11.08.2020 11:00:00 15,3 8,5 17 9 31 17 SSW
11.08.2020 10:00:00 14,6 8,8 26 14 34 18 S
11.08.2020 09:00:00 14,3 8,9 24 13 34 18 S
11.08.2020 08:00:00 13,6 7,8 22 12 31 17 S
11.08.2020 07:00:00 12,5 8,0 20 11 29 16 S
11.08.2020 06:00:00 11,4 7,3 22 12 26 14 S
11.08.2020 05:00:00 10,8 6,2 18 10 26 14 S
11.08.2020 04:00:00 11,3 6,0 21 11 24 13 S
11.08.2020 03:00:00 11,1 5,8 16 8 - - S
11.08.2020 02:00:00 11,9 6,4 15 8 19 11 S
11.08.2020 01:00:00 12,1 6,8 17 9 21 12 S
11.08.2020 00:00:00 11,4 7,1 10 6 15 8 ESE
10.08.2020 23:00:00 13,1 5,5 5 3 - - SE
10.08.2020 22:00:00 13,7 6,5 6 3 8 4 NE
10.08.2020 21:00:00 13,2 7,6 6 3 25 13 NNE
10.08.2020 20:00:00 14,4 7,0 18 10 28 15 N
10.08.2020 19:00:00 17,0 4,0 6 4 16 8 WNW
10.08.2020 18:00:00 16,6 4,3 11 6 27 14 SSW
10.08.2020 17:00:00 16,7 6,5 10 5 26 14 SSW
10.08.2020 16:00:00 16,4 7,6 11 6 24 13 S
10.08.2020 15:00:00 15,7 7,5 11 6 23 12 SW
10.08.2020 14:00:00 14,8 6,9 18 10 30 16 SSW
10.08.2020 13:00:00 14,1 7,8 24 13 34 19 SSW
10.08.2020 12:00:00 13,1 7,1 20 11 36 20 SSW
10.08.2020 11:00:00 12,8 7,5 24 13 41 22 S
10.08.2020 10:00:00 11,4 5,7 28 15 38 20 S
10.08.2020 09:00:00 10,4 5,4 27 15 36 20 S
10.08.2020 08:00:00 9,1 4,7 23 13 31 17 SSE
10.08.2020 07:00:00 7,5 4,1 22 12 27 14 SSE
10.08.2020 06:00:00 6,5 3,3 22 12 29 15 SSE
10.08.2020 05:00:00 5,1 2,6 20 11 26 14 S
10.08.2020 04:00:00 5,6 2,8 20 11 28 15 S
10.08.2020 03:00:00 5,8 2,8 23 12 27 15 SSE
10.08.2020 02:00:00 5,3 2,8 18 10 23 13 SSE
10.08.2020 01:00:00 5,2 2,9 18 10 26 14 SE
10.08.2020 00:00:00 5,1 3,1 13 7 16 9 SE
09.08.2020 23:00:00 5,8 3,5 6 4 11 6 ESE
09.08.2020 22:00:00 6,4 3,6 5 3 8 5 E
09.08.2020 21:00:00 7,7 4,3 4 2 14 8 ENE
09.08.2020 20:00:00 8,4 4,0 9 5 22 12 N
09.08.2020 19:00:00 9,1 4,7 14 8 22 12 NNW
09.08.2020 18:00:00 8,6 4,6 13 7 32 17 N
09.08.2020 17:00:00 8,5 6,0 12 6 22 12 NW
09.08.2020 16:00:00 7,4 6,2 17 9 23 13 NW
09.08.2020 15:00:00 7,0 5,8 21 11 29 16 NNW
09.08.2020 14:00:00 7,7 5,7 23 12 29 16 NNW
09.08.2020 13:00:00 6,6 5,9 22 12 27 15 NW
09.08.2020 12:00:00 6,6 6,0 20 11 26 14 NW
09.08.2020 11:00:00 6,7 6,4 14 8 23 13 NW
09.08.2020 10:00:00 5,9 5,8 13 7 24 13 WNW
09.08.2020 09:00:00 4,6 4,5 16 9 25 14 WNW
09.08.2020 08:00:00 4,1 4,0 13 7 21 11 NW
09.08.2020 07:00:00 4,4 4,3 13 7 26 14 NW
09.08.2020 06:00:00 3,7 3,6 21 11 31 17 WNW
09.08.2020 05:00:00 3,8 3,7 26 14 32 17 NW
09.08.2020 04:00:00 3,5 3,4 21 12 36 20 WNW
09.08.2020 03:00:00 3,8 3,7 28 15 37 20 WNW
09.08.2020 02:00:00 4,1 4,0 16 9 22 12 WNW
09.08.2020 01:00:00 4,2 4,1 8 4 - - WNW
09.08.2020 00:00:00 4,7 4,6 21 11 30 16 NW
08.08.2020 23:00:00 4,9 4,8 26 14 36 19 NW
08.08.2020 22:00:00 5,5 5,4 26 14 41 22 NW
08.08.2020 21:00:00 6,5 6,4 29 16 48 26 NW
08.08.2020 20:00:00 7,6 7,5 32 18 42 23 WNW
08.08.2020 19:00:00 8,5 8,4 28 15 49 26 NW
08.08.2020 18:00:00 10,2 10,0 34 18 50 27 NW
08.08.2020 17:00:00 11,5 11,2 29 16 47 25 WNW
08.08.2020 16:00:00 18,1 12,1 34 19 49 26 SSW
08.08.2020 15:00:00 17,2 12,9 35 19 53 29 SSW
08.08.2020 14:00:00 15,1 12,2 35 19 50 27 S
08.08.2020 13:00:00 16,8 10,9 30 16 51 28 S
08.08.2020 12:00:00 15,9 11,1 32 18 46 25 S
08.08.2020 11:00:00 16,0 10,7 29 15 48 26 S
08.08.2020 10:00:00 15,1 10,7 36 19 46 25 S
08.08.2020 09:00:00 13,6 10,6 36 19 46 25 S
08.08.2020 08:00:00 12,8 10,9 30 16 43 23 S
08.08.2020 07:00:00 12,0 10,1 24 13 35 19 S
08.08.2020 06:00:00 12,2 10,1 25 13 37 20 S

tt = Température de l'air
td = dewpoint
ff = Vitesse du vent
fx = gusts
dd = Direction du vent

stations d'obs. à proximité